Weather observations for the past three days for
Mercury, Desert Rock Airport
Metric (Imperial)
Date Time (pdt) Wind (kph) Vis. (km) Weather Sky Cond. Temperature (ºC) Relative Humidity Wind Chill (°C) Heat Index (°C) Pressure Precipitation (cm)
Air Dwpt 6 hour altimeter (cm) sea level (mb) 1 hr 3 hr 6 hr
Max. Min.
01 23:53 SE 17 16.09 Fair CLR 24.4 -7.2 12% 24 76.02 1008.6
01 22:53 S 20 16.09 Fair CLR 25 -8.9 31.1 24.4 10% 24 76.02 1008.5
01 21:53 SE 9 16.09 Fair CLR 25 -8.9 10% 24 76.02 1008.7
01 20:53 S 11 16.09 Fair CLR 25.6 -10.6 8% 25 75.97 1008.2
01 19:53 S 20 16.09 Fair CLR 27.2 -7.8 9% 26 75.92 1007.4
01 18:53 S 35 G 57 16.09 Fair and Breezy CLR 28.9 -7.8 8% 27 75.92 1007.6
01 17:53 S 33 G 57 16.09 Fair and Breezy CLR 30.6 -7.8 8% 29 75.95 1007.8
01 16:53 S 28 G 54 16.09 Fair CLR 31.1 -8.3 32.2 28.9 7% 29 75.97 1008.0
01 15:53 SE 33 G 54 16.09 Fair and Breezy CLR 31.7 -6.7 8% 30 76 1008.1
01 14:53 S 35 G 50 16.09 Fair and Breezy CLR 31.1 -5 9% 29 76.05 1008.6
01 13:53 S 31 G 48 16.09 Fair CLR 30.6 -4.4 10% 29 76.1 1009.3
01 12:53 S 26 G 41 16.09 Fair CLR 30.6 -5 9% 29 76.15 1010.1
01 11:53 S 37 G 56 16.09 Fair and Breezy CLR 30 -4.4 10% 28 76.2 1011.1
01 10:53 S 28 G 43 16.09 Fair CLR 28.9 -6.7 28.9 20.6 9% 27 76.25 1011.5
01 08:53 S 19 G 39 16.09 Fair CLR 26.7 -7.2 10% 26 76.2 1010.7
01 07:53 SE 24 G 43 16.09 Fair CLR 25 -6.1 12% 25 76.15 1010.3
01 06:53 S 17 16.09 Fair CLR 22.2 -7.8 13% 76.15 1010.5
01 05:53 S 19 16.09 Fair CLR 22.8 -8.9 11% 76.07 1009.3
01 04:53 SE 26 G 37 16.09 Fair CLR 23.3 -6.7 26.7 22.2 13% 76.05 1008.8
01 03:53 SE 24 G 33 16.09 Fair CLR 23.3 -5.6 14% 76.07 1008.9
01 02:53 SW 19 16.09 Fair CLR 23.9 -5.6 14% 24 76.05 1008.6
01 01:53 SW 24 G 39 16.09 Fair CLR 24.4 -6.1 13% 24 76.05 1008.5
01 00:53 Calm 16.09 Fair CLR 25.6 -4.4 13% 25 76.02 0.0
31 23:53 Calm 16.09 Fair CLR 24.4 -4.4 14% 24 76.02 0.0
31 22:53 S 7 16.09 Fair CLR 25 -3.9 33.3 25 14% 25 76.02 1008.3
31 21:53 SW 11 16.09 Fair CLR 26.7 -4.4 13% 26 76.02 1008.1
31 20:53 S 20 G 30 16.09 Fair CLR 28.3 -1.7 14% 27 75.95 1007.1
31 19:53 SE 26 G 37 16.09 Fair CLR 30 3.9 19% 28 75.87 1006.7
31 18:53 S 30 G 41 16.09 Fair CLR 31.1 3.3 17% 29 75.87 1006.5
31 17:53 S 31 G 50 16.09 A Few Clouds FEW110 32.8 2.8 15% 30 75.87 1006.3
31 16:53 S 31 G 50 16.09 Fair CLR 33.3 2.8 34.4 30 14% 31 75.9 1006.3
31 15:53 SE 33 G 67 16.09 Fair and Breezy CLR 33.9 2.2 13% 31 75.92 1006.8
31 14:53 S 31 G 52 16.09 Fair CLR 34.4 2.8 14% 32 75.97 1007.2
31 13:53 SE 37 G 59 16.09 Fair and Breezy CLR 33.9 3.3 14% 31 76 1008.0
31 11:53 Calm 0.00 NULL NULL 32.8 5.6 18% 31 76.1 1009.2
31 10:53 S 30 G 43 16.09 Partly Cloudy SCT120 30.6 6.1 31.7 22.2 21% 29 76.1 1009.3
31 09:53 SW 20 G 41 16.09 Fair CLR 30.6 5 20% 29 76.1 1009.0
31 08:53 SE 22 16.09 Fair CLR 28.3 4.4 22% 27 76.07 1008.9
31 07:53 Calm 16.09 Fair CLR 24.4 3.9 26% 25 76.1 1009.4
31 06:53 NE 9 16.09 Fair CLR 22.8 3.3 28% 76.05 1008.9
31 05:53 N 17 16.09 Fair CLR 22.2 3.9 30% 76 1008.0
31 04:53 N 15 16.09 Fair CLR 23.3 3.9 28.9 22.2 28% 76 1007.7
31 03:53 N 7 16.09 Fair CLR 22.8 3.3 28% 76 1007.7
31 02:53 N 15 16.09 Fair CLR 23.9 2.8 25% 25 75.97 1007.6
31 01:53 W 11 16.09 Fair CLR 22.8 1.7 25% 75.97 1007.6
31 00:53 N 6 16.09 Fair CLR 23.9 1.7 23% 25 76 1007.9
30 23:53 NE 7 16.09 Fair CLR 25.6 2.2 22% 25 76 1007.7
30 22:53 W 6 16.09 Fair CLR 27.8 1.7 33.9 27.8 18% 27 75.97 1007.5
30 21:53 S 7 16.09 Fair CLR 30 1.7 16% 28 76 1007.4
30 20:53 S 22 16.09 Fair CLR 30.6 1.1 15% 29 75.95 1007.1
30 19:53 S 30 G 44 16.09 Fair CLR 30.6 2.2 16% 29 75.9 1006.5
30 18:53 SE 37 G 52 16.09 Fair and Breezy CLR 31.1 1.7 15% 29 75.9 1006.4
30 17:53 SE 35 G 50 14.48 Fair and Breezy CLR 32.8 -2.2 10% 30 75.92 1006.7
30 16:53 S 28 G 44 16.09 Fair CLR 33.9 -1.7 35 31.7 10% 31 75.92 1006.5
30 15:53 SE 35 G 54 16.09 Fair and Breezy CLR 34.4 1.1 12% 32 75.97 1006.8
30 14:53 S 31 G 46 16.09 Fair CLR 33.9 -1.7 10% 31 76.02 1007.6
30 13:53 S 35 G 54 16.09 Fair and Breezy CLR 34.4 -1.7 10% 32 76.07 1008.2
30 12:53 S 28 G 43 16.09 Fair CLR 33.9 -0.6 11% 31 76.07 1008.5
30 11:53 S 31 G 50 16.09 Fair CLR 32.8 0.6 13% 30 76.1 1008.9
30 10:53 S 20 G 41 16.09 Fair CLR 32.2 0.6 32.2 23.9 13% 30 76.12 1009.1
30 09:53 S 28 G 43 16.09 Fair CLR 31.1 1.7 15% 29 76.1 1009.0
30 08:53 S 28 16.09 Fair CLR 29.4 2.8 18% 28 76.1 1009.0
30 07:53 S 17 16.09 Fair CLR 27.8 2.2 19% 27 76.07 1008.9
30 06:53 S 13 16.09 Fair CLR 25 2.8 24% 25 76.05 1008.6
30 05:53 Calm 16.09 Fair CLR 25 1.1 21% 25 76 1007.8
30 04:53 Calm 16.09 Fair CLR 26.7 0.6 29.4 26.1 18% 26 75.95 1006.7
30 03:53 S 20 G 31 16.09 Fair CLR 28.3 0.6 17% 27 75.92 1006.2
30 02:53 SE 19 G 31 16.09 Fair CLR 28.9 1.7 17% 27 75.87 1005.6
30 01:53 SE 13 16.09 Fair CLR 28.3 2.8 19% 27 75.92 1006.1
30 00:53 S 24 16.09 Fair CLR 28.9 3.3 19% 27 75.92 1006.1
Date Time (pdt) Wind (kph) Vis. (km) Weather Sky Cond. Air Dwpt Max. Min. Relative Humidity Wind Chill (°C) Heat Index (°C) altimeter (cm) sea level (mb) 1 hr 3 hr 6 hr
6 hour
Temperature (ºC) Pressure Precipitation (cm)